Hitomimaru — JD4014 — position and weather

sailwx.info

Track history (hours):
 
Tides and Currents Weather Stations Pressure Air Temp Water Temp Dewpoint Dewpoint Depression Visibility Wind Speed Wind Dir Waves Ship Positions

Hitomimaru

Last reported at 2018-Jan-18 02:00 UTC. Time now 2018-Jan-18 02:15 UTC.
Position N 35°23' E 139°47'.

Length 35 m; draft 3.9 m.

Type: Tug. MMSI: 431007965.

Date/timePositionNaut miles runAvg speedWind from/ knotsBaromVisibWave heightAir tempDewpointWater temp
2018-Jan-18 02:00N 35°23' E 139°47'1 1.9
2018-Jan-18 01:30N 35°22' E 139°46'4 7.6
2018-Jan-18 01:00N 35°23' E 139°51'3 2.9
2018-Jan-18 00:00N 35°22' E 139°54'0 0.0
2018-Jan-17 23:56N 35°22' E 139°54'  
2018-Jan-12 15:01N 35°20' E 139°49'0 0.0
2018-Jan-12 14:30N 35°20' E 139°49'0 0.0
2018-Jan-12 14:01N 35°20' E 139°49'0 0.0
2018-Jan-12 13:30N 35°20' E 139°49'0 0.2
2018-Jan-12 13:01N 35°21' E 139°49'0 0.4
2018-Jan-12 12:30N 35°21' E 139°49'0 0.3
2018-Jan-12 12:01N 35°21' E 139°49'0 0.2
2018-Jan-12 11:31N 35°21' E 139°49'0 0.0
2018-Jan-12 11:01N 35°21' E 139°49'0 0.1
2018-Jan-12 10:31N 35°21' E 139°49'0 0.2
2018-Jan-12 10:01N 35°21' E 139°49'0 0.5
2018-Jan-12 09:30N 35°21' E 139°49'0 0.2
2018-Jan-12 09:01N 35°21' E 139°49'0 0.3
2018-Jan-12 08:31N 35°21' E 139°49'0 0.3
2018-Jan-12 08:00N 35°21' E 139°49'0 0.4
2018-Jan-12 07:31N 35°21' E 139°49'0 0.2
2018-Jan-12 07:00N 35°20' E 139°49'0 0.4
2018-Jan-12 06:31N 35°21' E 139°49'0 0.4
2018-Jan-12 06:01N 35°21' E 139°49'0 0.6
2018-Jan-12 05:30N 35°21' E 139°49'0 0.1
2018-Jan-12 05:00N 35°21' E 139°49'0 0.2
2018-Jan-12 04:31N 35°21' E 139°49'0 0.4
2018-Jan-12 04:01N 35°21' E 139°49'0 0.1
2018-Jan-12 03:31N 35°21' E 139°49'0 0.4
2018-Jan-12 03:00N 35°21' E 139°49'0 0.2
2018-Jan-12 02:31N 35°20' E 139°49'0 0.3
2018-Jan-12 02:01N 35°21' E 139°49'0 0.5
2018-Jan-12 01:31N 35°21' E 139°49'1 2.0
2018-Jan-12 01:01N 35°22' E 139°49'0 0.3
2018-Jan-12 00:31N 35°22' E 139°49'1 1.9
2018-Jan-12 00:01N 35°21' E 139°49'0 0.2
2018-Jan-11 23:30N 35°21' E 139°49'2 4.6
2018-Jan-11 23:00N 35°23' E 139°51'3 5.9
2018-Jan-11 22:30N 35°22' E 139°54'0 0.0
2018-Jan-11 21:59N 35°22' E 139°54'0 0.0
2018-Jan-11 21:30N 35°22' E 139°54'0 0.0
2018-Jan-11 20:58N 35°22' E 139°54'0 0.0
2018-Jan-11 20:30N 35°22' E 139°54'0 0.0
2018-Jan-11 20:01N 35°22' E 139°54'0 0.0
2018-Jan-11 19:30N 35°22' E 139°54'0 0.0
2018-Jan-11 18:59N 35°22' E 139°54'0 0.0
2018-Jan-11 18:30N 35°22' E 139°54'0 0.0
2018-Jan-11 18:00N 35°22' E 139°54'0 0.0
2018-Jan-11 17:29N 35°22' E 139°54'0 0.0
2018-Jan-11 16:58N 35°22' E 139°54'0 0.0
2018-Jan-11 16:30N 35°22' E 139°54'0 0.0
2018-Jan-11 15:58N 35°22' E 139°54'0 0.0
2018-Jan-11 15:30N 35°22' E 139°54'0 0.0
2018-Jan-11 15:00N 35°22' E 139°54'0 0.0
2018-Jan-11 14:24N 35°22' E 139°54'0 0.0
2018-Jan-11 13:53N 35°22' E 139°54'0 0.0
2018-Jan-11 13:30N 35°22' E 139°54'0 0.0
2018-Jan-11 13:00N 35°22' E 139°54'0 0.0
2018-Jan-11 12:29N 35°22' E 139°54'0 0.0
2018-Jan-11 12:00N 35°22' E 139°54'0 0.0
2018-Jan-11 11:30N 35°22' E 139°54'0 0.0
2018-Jan-11 11:00N 35°22' E 139°54'0 0.0
2018-Jan-11 10:30N 35°22' E 139°54'0 0.0
2018-Jan-11 10:00N 35°22' E 139°54'0 0.0
2018-Jan-11 09:30N 35°22' E 139°54'0 0.0
2018-Jan-11 09:00N 35°22' E 139°54'0 0.0
2018-Jan-11 08:29N 35°22' E 139°54'0 0.0
2018-Jan-11 08:00N 35°22' E 139°54'0 0.0
2018-Jan-11 07:30N 35°22' E 139°54'0 0.0
2018-Jan-11 07:00N 35°22' E 139°54'0 0.0
2018-Jan-11 06:30N 35°22' E 139°54'0 0.0
2018-Jan-11 06:00N 35°22' E 139°54'0 0.0
2018-Jan-11 05:30N 35°22' E 139°54'1 2.7
2018-Jan-11 05:00N 35°22' E 139°52'0 0.5
2018-Jan-11 04:30N 35°22' E 139°52'3 5.2
2018-Jan-11 04:00N 35°23' E 139°49'2 3.8
2018-Jan-11 03:30N 35°25' E 139°50'1 1.5
2018-Jan-11 03:00N 35°25' E 139°51'3 5.5
2018-Jan-11 02:30N 35°23' E 139°51'2 3.5
2018-Jan-11 02:00N 35°22' E 139°53'2 4.6
2018-Jan-11 01:31N 35°23' E 139°51'2 4.5
2018-Jan-11 01:00N 35°21' E 139°49'0 0.0
2018-Jan-11 00:30N 35°21' E 139°49'0 0.6
2018-Jan-11 00:01N 35°21' E 139°49'3 5.8
2018-Jan-10 23:31N 35°23' E 139°47'1 2.8
2018-Jan-10 23:00N 35°22' E 139°46'2 4.8
2018-Jan-10 22:30N 35°22' E 139°49'2 3.2
2018-Jan-10 22:00N 35°22' E 139°51'1 1.9
2018-Jan-10 21:30N 35°22' E 139°50'0 0.4
2018-Jan-10 21:00N 35°22' E 139°50'1 1.7
2018-Jan-10 20:30N 35°22' E 139°51'0 0.8
2018-Jan-10 20:01N 35°22' E 139°50'3 5.6
2018-Jan-10 19:31N 35°22' E 139°54'0 0.0
2018-Jan-10 19:00N 35°22' E 139°54'0 0.0
2018-Jan-10 18:31N 35°22' E 139°54'0 0.0
2018-Jan-10 18:00N 35°22' E 139°54'0 0.0
2018-Jan-10 17:30N 35°22' E 139°54'0 0.0
2018-Jan-10 17:00N 35°22' E 139°54'0 0.0
2018-Jan-10 16:30N 35°22' E 139°54'0 0.0
2018-Jan-10 16:00N 35°22' E 139°54'0 0.0
2018-Jan-10 15:30N 35°22' E 139°54'0 0.0
2018-Jan-10 15:00N 35°22' E 139°54'0 0.0
2018-Jan-10 14:30N 35°22' E 139°54'0 0.0
2018-Jan-10 14:00N 35°22' E 139°54'0 0.0
2018-Jan-10 13:31N 35°22' E 139°54'0 0.0
2018-Jan-10 13:00N 35°22' E 139°54'0 0.0
2018-Jan-10 12:30N 35°22' E 139°54'0 0.0
2018-Jan-10 12:01N 35°22' E 139°54'0 0.0
2018-Jan-10 11:30N 35°22' E 139°54'0 0.0
2018-Jan-10 11:01N 35°22' E 139°54'0 0.0
2018-Jan-10 10:30N 35°22' E 139°54'0 0.0
2018-Jan-10 10:00N 35°22' E 139°54'0 0.0
2018-Jan-10 09:30N 35°22' E 139°54'0 0.0
2018-Jan-10 09:00N 35°22' E 139°54'0 0.0
2018-Jan-10 08:30N 35°22' E 139°54'0 0.0
2018-Jan-10 08:00N 35°22' E 139°54'0 0.0
2018-Jan-10 07:30N 35°22' E 139°54'0 0.0
2018-Jan-10 07:00N 35°22' E 139°54'0 0.0
2018-Jan-10 06:30N 35°22' E 139°54'0 0.0
2018-Jan-10 06:00N 35°22' E 139°54'1 1.6
2018-Jan-10 05:30N 35°22' E 139°53'0 0.2
2018-Jan-10 05:00N 35°22' E 139°53'1 1.4
2018-Jan-10 04:29N 35°22' E 139°54'0 0.0
2018-Jan-10 04:00N 35°22' E 139°54'0 0.0
2018-Jan-10 03:30N 35°22' E 139°54'0 0.0
2018-Jan-10 03:00N 35°22' E 139°54'0 0.0
2018-Jan-10 02:30N 35°22' E 139°54'0 0.0
2018-Jan-10 02:00N 35°22' E 139°54'0 0.0
2018-Jan-10 01:30N 35°22' E 139°54'0 0.0
2018-Jan-10 01:01N 35°22' E 139°54'0 0.0
2018-Jan-10 00:30N 35°22' E 139°54'0 0.0
2018-Jan-10 00:00N 35°22' E 139°54'0 0.0
2018-Jan-09 23:30N 35°22' E 139°54'0 0.0
2018-Jan-09 23:00N 35°22' E 139°54'0 0.0
2018-Jan-09 22:30N 35°22' E 139°54'0 0.0
2018-Jan-09 22:00N 35°22' E 139°54'0 0.0
2018-Jan-09 21:30N 35°22' E 139°54'0 0.0
2018-Jan-09 21:00N 35°22' E 139°54'0 0.0
2018-Jan-09 20:30N 35°22' E 139°54'0 0.0
2018-Jan-09 20:00N 35°22' E 139°54'0 0.0
2018-Jan-09 19:30N 35°22' E 139°54'0 0.0
2018-Jan-09 19:00N 35°22' E 139°54'0 0.0
2018-Jan-09 18:30N 35°22' E 139°54'0 0.0
2018-Jan-09 18:01N 35°22' E 139°54'0 0.0
2018-Jan-09 17:30N 35°22' E 139°54'0 0.0
2018-Jan-09 17:00N 35°22' E 139°54'0 0.0
2018-Jan-09 16:30N 35°22' E 139°54'0 0.0
2018-Jan-09 16:01N 35°22' E 139°54'0 0.0
2018-Jan-09 15:30N 35°22' E 139°54'0 0.0
2018-Jan-09 15:00N 35°22' E 139°54'0 0.0
2018-Jan-09 14:30N 35°22' E 139°54'0 0.0
2018-Jan-09 14:00N 35°22' E 139°54'0 0.0
2018-Jan-09 13:30N 35°22' E 139°54'0 0.0
2018-Jan-09 13:00N 35°22' E 139°54'0 0.0
2018-Jan-09 12:30N 35°22' E 139°54'0 0.0
2018-Jan-09 12:00N 35°22' E 139°54'0 0.0
2018-Jan-09 11:30N 35°22' E 139°54'0 0.0
2018-Jan-09 11:00N 35°22' E 139°54'0 0.0
2018-Jan-09 10:30N 35°22' E 139°54'0 0.0
2018-Jan-09 10:00N 35°22' E 139°54'0 0.0
2018-Jan-09 09:30N 35°22' E 139°54'0 0.0
2018-Jan-09 09:00N 35°22' E 139°54'0 0.0
2018-Jan-09 08:30N 35°22' E 139°54'0 0.0
2018-Jan-09 08:00N 35°22' E 139°54'0 0.0
2018-Jan-09 07:30N 35°22' E 139°54'0 0.0
2018-Jan-09 07:00N 35°22' E 139°54'0 0.0
2018-Jan-09 06:30N 35°22' E 139°54'0 0.0
2018-Jan-09 06:00N 35°22' E 139°54'0 0.0
2018-Jan-09 05:30N 35°22' E 139°54'0 0.0
2018-Jan-09 05:00N 35°22' E 139°54'0 0.0
2018-Jan-09 04:30N 35°22' E 139°54'0 0.0
2018-Jan-09 04:00N 35°22' E 139°54'0 0.0
2018-Jan-09 03:30N 35°22' E 139°54'0 0.0
2018-Jan-09 03:00N 35°22' E 139°54'0 0.0
2018-Jan-09 02:31N 35°22' E 139°54'0 0.0
2018-Jan-09 02:00N 35°22' E 139°54'0 0.0
2018-Jan-09 01:30N 35°22' E 139°54'0 0.0
2018-Jan-09 01:00N 35°22' E 139°54'0 0.0
2018-Jan-09 00:30N 35°22' E 139°54'0 0.0
2018-Jan-09 00:00N 35°22' E 139°54'0 0.0
2018-Jan-08 23:30N 35°22' E 139°54'0 0.0
2018-Jan-08 23:00N 35°22' E 139°54'0 0.0
2018-Jan-08 22:30N 35°22' E 139°54'3 6.2
2018-Jan-08 22:00N 35°23' E 139°50'1 1.5
2018-Jan-08 21:31N 35°22' E 139°51'0 0.2
2018-Jan-08 21:00N 35°22' E 139°50'1 2.9
2018-Jan-08 20:31N 35°23' E 139°49'3 6.4
2018-Jan-08 20:00N 35°22' E 139°53'1 1.3
2018-Jan-08 19:30N 35°21' E 139°54'0 0.0
2018-Jan-08 19:00N 35°21' E 139°54'0 0.0
2018-Jan-08 18:30N 35°21' E 139°54'0 0.0
2018-Jan-08 18:00N 35°21' E 139°54'0 0.0
2018-Jan-08 17:30N 35°21' E 139°54'0 0.0
2018-Jan-08 17:00N 35°21' E 139°54'0 0.0
2018-Jan-08 16:30N 35°21' E 139°54'0 0.0
2018-Jan-08 16:00N 35°21' E 139°54'0 0.0
2018-Jan-08 15:30N 35°21' E 139°54'0 0.0
2018-Jan-08 15:00N 35°21' E 139°54'0 0.0
2018-Jan-08 14:30N 35°21' E 139°54'0 0.0
2018-Jan-08 14:00N 35°21' E 139°54'0 0.0
2018-Jan-08 13:30N 35°21' E 139°54'0 0.0
2018-Jan-08 13:00N 35°21' E 139°54'0 0.0
2018-Jan-08 12:30N 35°21' E 139°54'0 0.0
2018-Jan-08 12:00N 35°21' E 139°54'0 0.0
2018-Jan-08 11:30N 35°21' E 139°54'0 0.0
2018-Jan-08 11:00N 35°21' E 139°54'3 5.2
2018-Jan-08 10:31N 35°23' E 139°51'2 4.9
2018-Jan-08 10:00N 35°21' E 139°49'0 0.2
2018-Jan-08 09:31N 35°21' E 139°49'3 5.5
2018-Jan-08 09:00N 35°22' E 139°52'2 3.2
2018-Jan-08 08:30N 35°21' E 139°54'0 0.0
2018-Jan-08 08:00N 35°21' E 139°54'0 0.0
2018-Jan-08 07:30N 35°21' E 139°54'0 0.0
2018-Jan-08 07:00N 35°21' E 139°54'0 0.0
2018-Jan-08 06:30N 35°21' E 139°54'0 0.0
2018-Jan-08 06:00N 35°21' E 139°54'0 0.0
2018-Jan-08 05:30N 35°21' E 139°54'0 0.0
2018-Jan-08 05:00N 35°21' E 139°54'0 0.0
2018-Jan-08 04:30N 35°21' E 139°54'0 0.0
2018-Jan-08 04:00N 35°21' E 139°54'0 0.0
2018-Jan-08 03:31N 35°21' E 139°54'0 0.0
2018-Jan-08 03:00N 35°21' E 139°54'0 0.0
2018-Jan-08 02:30N 35°21' E 139°54'  
Track history (hours):
 
Tides and Currents Weather Stations Pressure Air Temp Water Temp Dewpoint Dewpoint Depression Visibility Wind Speed Wind Dir Waves Ship Positions

Hitomimaru

Last reported at 2018-Jan-18 02:00 UTC. Time now 2018-Jan-18 02:15 UTC.
Position N 35°23' E 139°47'.

Length 35 m; draft 3.9 m.

Type: Tug. MMSI: 431007965.

Date/timePositionNaut miles runAvg speedWind from/ knotsBaromVisibWave heightAir tempDewpointWater temp
2018-Jan-18 02:00N 35°23' E 139°47'1 1.9
2018-Jan-18 01:30N 35°22' E 139°46'4 7.6
2018-Jan-18 01:00N 35°23' E 139°51'3 2.9
2018-Jan-18 00:00N 35°22' E 139°54'0 0.0
2018-Jan-17 23:56N 35°22' E 139°54'  
2018-Jan-12 15:01N 35°20' E 139°49'0 0.0
2018-Jan-12 14:30N 35°20' E 139°49'0 0.0
2018-Jan-12 14:01N 35°20' E 139°49'0 0.0
2018-Jan-12 13:30N 35°20' E 139°49'0 0.2
2018-Jan-12 13:01N 35°21' E 139°49'0 0.4
2018-Jan-12 12:30N 35°21' E 139°49'0 0.3
2018-Jan-12 12:01N 35°21' E 139°49'0 0.2
2018-Jan-12 11:31N 35°21' E 139°49'0 0.0
2018-Jan-12 11:01N 35°21' E 139°49'0 0.1
2018-Jan-12 10:31N 35°21' E 139°49'0 0.2
2018-Jan-12 10:01N 35°21' E 139°49'0 0.5
2018-Jan-12 09:30N 35°21' E 139°49'0 0.2
2018-Jan-12 09:01N 35°21' E 139°49'0 0.3
2018-Jan-12 08:31N 35°21' E 139°49'0 0.3
2018-Jan-12 08:00N 35°21' E 139°49'0 0.4
2018-Jan-12 07:31N 35°21' E 139°49'0 0.2
2018-Jan-12 07:00N 35°20' E 139°49'0 0.4
2018-Jan-12 06:31N 35°21' E 139°49'0 0.4
2018-Jan-12 06:01N 35°21' E 139°49'0 0.6
2018-Jan-12 05:30N 35°21' E 139°49'0 0.1
2018-Jan-12 05:00N 35°21' E 139°49'0 0.2
2018-Jan-12 04:31N 35°21' E 139°49'0 0.4
2018-Jan-12 04:01N 35°21' E 139°49'0 0.1
2018-Jan-12 03:31N 35°21' E 139°49'0 0.4
2018-Jan-12 03:00N 35°21' E 139°49'0 0.2
2018-Jan-12 02:31N 35°20' E 139°49'0 0.3
2018-Jan-12 02:01N 35°21' E 139°49'0 0.5
2018-Jan-12 01:31N 35°21' E 139°49'1 2.0
2018-Jan-12 01:01N 35°22' E 139°49'0 0.3
2018-Jan-12 00:31N 35°22' E 139°49'1 1.9
2018-Jan-12 00:01N 35°21' E 139°49'0 0.2
2018-Jan-11 23:30N 35°21' E 139°49'2 4.6
2018-Jan-11 23:00N 35°23' E 139°51'3 5.9
2018-Jan-11 22:30N 35°22' E 139°54'0 0.0
2018-Jan-11 21:59N 35°22' E 139°54'0 0.0
2018-Jan-11 21:30N 35°22' E 139°54'0 0.0
2018-Jan-11 20:58N 35°22' E 139°54'0 0.0
2018-Jan-11 20:30N 35°22' E 139°54'0 0.0
2018-Jan-11 20:01N 35°22' E 139°54'0 0.0
2018-Jan-11 19:30N 35°22' E 139°54'0 0.0
2018-Jan-11 18:59N 35°22' E 139°54'0 0.0
2018-Jan-11 18:30N 35°22' E 139°54'0 0.0
2018-Jan-11 18:00N 35°22' E 139°54'0 0.0
2018-Jan-11 17:29N 35°22' E 139°54'0 0.0
2018-Jan-11 16:58N 35°22' E 139°54'0 0.0
2018-Jan-11 16:30N 35°22' E 139°54'0 0.0
2018-Jan-11 15:58N 35°22' E 139°54'0 0.0
2018-Jan-11 15:30N 35°22' E 139°54'0 0.0
2018-Jan-11 15:00N 35°22' E 139°54'0 0.0
2018-Jan-11 14:24N 35°22' E 139°54'0 0.0
2018-Jan-11 13:53N 35°22' E 139°54'0 0.0
2018-Jan-11 13:30N 35°22' E 139°54'0 0.0
2018-Jan-11 13:00N 35°22' E 139°54'0 0.0
2018-Jan-11 12:29N 35°22' E 139°54'0 0.0
2018-Jan-11 12:00N 35°22' E 139°54'0 0.0
2018-Jan-11 11:30N 35°22' E 139°54'0 0.0
2018-Jan-11 11:00N 35°22' E 139°54'0 0.0
2018-Jan-11 10:30N 35°22' E 139°54'0 0.0
2018-Jan-11 10:00N 35°22' E 139°54'0 0.0
2018-Jan-11 09:30N 35°22' E 139°54'0 0.0
2018-Jan-11 09:00N 35°22' E 139°54'0 0.0
2018-Jan-11 08:29N 35°22' E 139°54'0 0.0
2018-Jan-11 08:00N 35°22' E 139°54'0 0.0
2018-Jan-11 07:30N 35°22' E 139°54'0 0.0
2018-Jan-11 07:00N 35°22' E 139°54'0 0.0
2018-Jan-11 06:30N 35°22' E 139°54'0 0.0
2018-Jan-11 06:00N 35°22' E 139°54'0 0.0
2018-Jan-11 05:30N 35°22' E 139°54'1 2.7
2018-Jan-11 05:00N 35°22' E 139°52'0 0.5
2018-Jan-11 04:30N 35°22' E 139°52'3 5.2
2018-Jan-11 04:00N 35°23' E 139°49'2 3.8
2018-Jan-11 03:30N 35°25' E 139°50'1 1.5
2018-Jan-11 03:00N 35°25' E 139°51'3 5.5
2018-Jan-11 02:30N 35°23' E 139°51'2 3.5
2018-Jan-11 02:00N 35°22' E 139°53'2 4.6
2018-Jan-11 01:31N 35°23' E 139°51'2 4.5
2018-Jan-11 01:00N 35°21' E 139°49'0 0.0
2018-Jan-11 00:30N 35°21' E 139°49'0 0.6
2018-Jan-11 00:01N 35°21' E 139°49'3 5.8
2018-Jan-10 23:31N 35°23' E 139°47'1 2.8
2018-Jan-10 23:00N 35°22' E 139°46'2 4.8
2018-Jan-10 22:30N 35°22' E 139°49'2 3.2
2018-Jan-10 22:00N 35°22' E 139°51'1 1.9
2018-Jan-10 21:30N 35°22' E 139°50'0 0.4
2018-Jan-10 21:00N 35°22' E 139°50'1 1.7
2018-Jan-10 20:30N 35°22' E 139°51'0 0.8
2018-Jan-10 20:01N 35°22' E 139°50'3 5.6
2018-Jan-10 19:31N 35°22' E 139°54'0 0.0
2018-Jan-10 19:00N 35°22' E 139°54'0 0.0
2018-Jan-10 18:31N 35°22' E 139°54'0 0.0
2018-Jan-10 18:00N 35°22' E 139°54'0 0.0
2018-Jan-10 17:30N 35°22' E 139°54'0 0.0
2018-Jan-10 17:00N 35°22' E 139°54'0 0.0
2018-Jan-10 16:30N 35°22' E 139°54'0 0.0
2018-Jan-10 16:00N 35°22' E 139°54'0 0.0
2018-Jan-10 15:30N 35°22' E 139°54'0 0.0
2018-Jan-10 15:00N 35°22' E 139°54'0 0.0
2018-Jan-10 14:30N 35°22' E 139°54'0 0.0
2018-Jan-10 14:00N 35°22' E 139°54'0 0.0
2018-Jan-10 13:31N 35°22' E 139°54'0 0.0
2018-Jan-10 13:00N 35°22' E 139°54'0 0.0
2018-Jan-10 12:30N 35°22' E 139°54'0 0.0
2018-Jan-10 12:01N 35°22' E 139°54'0 0.0
2018-Jan-10 11:30N 35°22' E 139°54'0 0.0
2018-Jan-10 11:01N 35°22' E 139°54'0 0.0
2018-Jan-10 10:30N 35°22' E 139°54'0 0.0
2018-Jan-10 10:00N 35°22' E 139°54'0 0.0
2018-Jan-10 09:30N 35°22' E 139°54'0 0.0
2018-Jan-10 09:00N 35°22' E 139°54'0 0.0
2018-Jan-10 08:30N 35°22' E 139°54'0 0.0
2018-Jan-10 08:00N 35°22' E 139°54'0 0.0
2018-Jan-10 07:30N 35°22' E 139°54'0 0.0
2018-Jan-10 07:00N 35°22' E 139°54'0 0.0
2018-Jan-10 06:30N 35°22' E 139°54'0 0.0
2018-Jan-10 06:00N 35°22' E 139°54'1 1.6
2018-Jan-10 05:30N 35°22' E 139°53'0 0.2
2018-Jan-10 05:00N 35°22' E 139°53'1 1.4
2018-Jan-10 04:29N 35°22' E 139°54'0 0.0
2018-Jan-10 04:00N 35°22' E 139°54'0 0.0
2018-Jan-10 03:30N 35°22' E 139°54'0 0.0
2018-Jan-10 03:00N 35°22' E 139°54'0 0.0
2018-Jan-10 02:30N 35°22' E 139°54'0 0.0
2018-Jan-10 02:00N 35°22' E 139°54'0 0.0
2018-Jan-10 01:30N 35°22' E 139°54'0 0.0
2018-Jan-10 01:01N 35°22' E 139°54'0 0.0
2018-Jan-10 00:30N 35°22' E 139°54'0 0.0
2018-Jan-10 00:00N 35°22' E 139°54'0 0.0
2018-Jan-09 23:30N 35°22' E 139°54'0 0.0
2018-Jan-09 23:00N 35°22' E 139°54'0 0.0
2018-Jan-09 22:30N 35°22' E 139°54'0 0.0
2018-Jan-09 22:00N 35°22' E 139°54'0 0.0
2018-Jan-09 21:30N 35°22' E 139°54'0 0.0
2018-Jan-09 21:00N 35°22' E 139°54'0 0.0
2018-Jan-09 20:30N 35°22' E 139°54'0 0.0
2018-Jan-09 20:00N 35°22' E 139°54'0 0.0
2018-Jan-09 19:30N 35°22' E 139°54'0 0.0
2018-Jan-09 19:00N 35°22' E 139°54'0 0.0
2018-Jan-09 18:30N 35°22' E 139°54'0 0.0
2018-Jan-09 18:01N 35°22' E 139°54'0 0.0
2018-Jan-09 17:30N 35°22' E 139°54'0 0.0
2018-Jan-09 17:00N 35°22' E 139°54'0 0.0
2018-Jan-09 16:30N 35°22' E 139°54'0 0.0
2018-Jan-09 16:01N 35°22' E 139°54'0 0.0
2018-Jan-09 15:30N 35°22' E 139°54'0 0.0
2018-Jan-09 15:00N 35°22' E 139°54'0 0.0
2018-Jan-09 14:30N 35°22' E 139°54'0 0.0
2018-Jan-09 14:00N 35°22' E 139°54'0 0.0
2018-Jan-09 13:30N 35°22' E 139°54'0 0.0
2018-Jan-09 13:00N 35°22' E 139°54'0 0.0
2018-Jan-09 12:30N 35°22' E 139°54'0 0.0
2018-Jan-09 12:00N 35°22' E 139°54'0 0.0
2018-Jan-09 11:30N 35°22' E 139°54'0 0.0
2018-Jan-09 11:00N 35°22' E 139°54'0 0.0
2018-Jan-09 10:30N 35°22' E 139°54'0 0.0
2018-Jan-09 10:00N 35°22' E 139°54'0 0.0
2018-Jan-09 09:30N 35°22' E 139°54'0 0.0
2018-Jan-09 09:00N 35°22' E 139°54'0 0.0
2018-Jan-09 08:30N 35°22' E 139°54'0 0.0
2018-Jan-09 08:00N 35°22' E 139°54'0 0.0
2018-Jan-09 07:30N 35°22' E 139°54'0 0.0
2018-Jan-09 07:00N 35°22' E 139°54'0 0.0
2018-Jan-09 06:30N 35°22' E 139°54'0 0.0
2018-Jan-09 06:00N 35°22' E 139°54'0 0.0
2018-Jan-09 05:30N 35°22' E 139°54'0 0.0
2018-Jan-09 05:00N 35°22' E 139°54'0 0.0
2018-Jan-09 04:30N 35°22' E 139°54'0 0.0
2018-Jan-09 04:00N 35°22' E 139°54'0 0.0
2018-Jan-09 03:30N 35°22' E 139°54'0 0.0
2018-Jan-09 03:00N 35°22' E 139°54'0 0.0
2018-Jan-09 02:31N 35°22' E 139°54'0 0.0
2018-Jan-09 02:00N 35°22' E 139°54'0 0.0
2018-Jan-09 01:30N 35°22' E 139°54'0 0.0
2018-Jan-09 01:00N 35°22' E 139°54'0 0.0
2018-Jan-09 00:30N 35°22' E 139°54'0 0.0
2018-Jan-09 00:00N 35°22' E 139°54'0 0.0
2018-Jan-08 23:30N 35°22' E 139°54'0 0.0
2018-Jan-08 23:00N 35°22' E 139°54'0 0.0
2018-Jan-08 22:30N 35°22' E 139°54'3 6.2
2018-Jan-08 22:00N 35°23' E 139°50'1 1.5
2018-Jan-08 21:31N 35°22' E 139°51'0 0.2
2018-Jan-08 21:00N 35°22' E 139°50'1 2.9
2018-Jan-08 20:31N 35°23' E 139°49'3 6.4
2018-Jan-08 20:00N 35°22' E 139°53'1 1.3
2018-Jan-08 19:30N 35°21' E 139°54'0 0.0
2018-Jan-08 19:00N 35°21' E 139°54'0 0.0
2018-Jan-08 18:30N 35°21' E 139°54'0 0.0
2018-Jan-08 18:00N 35°21' E 139°54'0 0.0
2018-Jan-08 17:30N 35°21' E 139°54'0 0.0
2018-Jan-08 17:00N 35°21' E 139°54'0 0.0
2018-Jan-08 16:30N 35°21' E 139°54'0 0.0
2018-Jan-08 16:00N 35°21' E 139°54'0 0.0
2018-Jan-08 15:30N 35°21' E 139°54'0 0.0
2018-Jan-08 15:00N 35°21' E 139°54'0 0.0
2018-Jan-08 14:30N 35°21' E 139°54'0 0.0
2018-Jan-08 14:00N 35°21' E 139°54'0 0.0
2018-Jan-08 13:30N 35°21' E 139°54'0 0.0
2018-Jan-08 13:00N 35°21' E 139°54'0 0.0
2018-Jan-08 12:30N 35°21' E 139°54'0 0.0
2018-Jan-08 12:00N 35°21' E 139°54'0 0.0
2018-Jan-08 11:30N 35°21' E 139°54'0 0.0
2018-Jan-08 11:00N 35°21' E 139°54'3 5.2
2018-Jan-08 10:31N 35°23' E 139°51'2 4.9
2018-Jan-08 10:00N 35°21' E 139°49'0 0.2
2018-Jan-08 09:31N 35°21' E 139°49'3 5.5
2018-Jan-08 09:00N 35°22' E 139°52'2 3.2
2018-Jan-08 08:30N 35°21' E 139°54'0 0.0
2018-Jan-08 08:00N 35°21' E 139°54'0 0.0
2018-Jan-08 07:30N 35°21' E 139°54'0 0.0
2018-Jan-08 07:00N 35°21' E 139°54'0 0.0
2018-Jan-08 06:30N 35°21' E 139°54'0 0.0
2018-Jan-08 06:00N 35°21' E 139°54'0 0.0
2018-Jan-08 05:30N 35°21' E 139°54'0 0.0
2018-Jan-08 05:00N 35°21' E 139°54'0 0.0
2018-Jan-08 04:30N 35°21' E 139°54'0 0.0
2018-Jan-08 04:00N 35°21' E 139°54'0 0.0
2018-Jan-08 03:31N 35°21' E 139°54'0 0.0
2018-Jan-08 03:00N 35°21' E 139°54'0 0.0
2018-Jan-08 02:30N 35°21' E 139°54'  

Dump ship's entire track history